createdAt,value
2022-10-07T00:02:31.396Z,14.82
2022-10-07T00:04:57.988Z,13.10
2022-10-07T00:07:24.526Z,13.90
2022-10-07T00:09:51.059Z,14.70
2022-10-07T00:12:17.645Z,14.70
2022-10-07T00:14:44.529Z,15.43
2022-10-07T00:17:11.157Z,13.73
2022-10-07T00:19:37.744Z,14.48
2022-10-07T00:22:04.309Z,13.80
2022-10-07T00:24:30.864Z,14.02
2022-10-07T00:27:00.487Z,14.00
2022-10-07T00:29:27.211Z,14.00
2022-10-07T00:31:57.175Z,14.68
2022-10-07T00:34:24.125Z,13.20
2022-10-07T00:36:51.040Z,12.40
2022-10-07T00:39:18.116Z,11.60
2022-10-07T00:41:50.344Z,12.35
2022-10-07T00:44:31.996Z,11.52
2022-10-07T00:47:00.958Z,12.40
2022-10-07T00:49:41.024Z,10.88
2022-10-07T00:52:08.434Z,12.20
2022-10-07T00:54:37.022Z,11.45
2022-10-07T00:57:03.749Z,9.52
2022-10-07T00:59:30.268Z,10.85
2022-10-07T01:01:56.733Z,10.93
2022-10-07T01:04:23.175Z,12.18
2022-10-07T01:06:49.758Z,13.70
2022-10-07T01:09:16.214Z,12.98
2022-10-07T01:12:17.621Z,12.52
2022-10-07T01:15:08.975Z,12.68
2022-10-07T01:18:09.183Z,12.13
2022-10-07T01:20:46.808Z,12.40
2022-10-07T01:23:37.393Z,13.77
2022-10-07T01:26:27.311Z,14.00
2022-10-07T01:29:04.907Z,13.38
2022-10-07T01:31:44.245Z,13.23
2022-10-07T01:34:14.037Z,14.68
2022-10-07T01:36:42.921Z,13.35
2022-10-07T01:39:12.407Z,14.57
2022-10-07T01:41:40.088Z,13.77
2022-10-07T01:44:08.873Z,12.45
2022-10-07T01:46:37.822Z,14.27
2022-10-07T01:49:06.061Z,14.25
2022-10-07T01:51:37.063Z,15.00
2022-10-07T01:54:33.829Z,15.73
2022-10-07T01:57:28.597Z,15.32
2022-10-07T02:00:05.781Z,16.17
2022-10-07T02:02:53.449Z,13.93
2022-10-07T02:05:41.032Z,15.93
2022-10-07T02:08:33.654Z,16.15
2022-10-07T02:11:14.646Z,15.82
2022-10-07T02:13:50.919Z,16.05
2022-10-07T02:16:49.711Z,16.95
2022-10-07T02:19:22.209Z,15.90
2022-10-07T02:21:52.231Z,15.77
2022-10-07T02:24:25.809Z,15.98
2022-10-07T02:26:53.706Z,15.55
2022-10-07T02:29:23.646Z,15.07
2022-10-07T02:31:52.554Z,15.13
2022-10-07T02:34:21.682Z,14.10
2022-10-07T02:36:53.529Z,13.73
2022-10-07T02:39:20.266Z,13.35
2022-10-07T02:42:03.665Z,13.63
2022-10-07T02:45:05.294Z,13.38
2022-10-07T02:47:43.060Z,13.25
2022-10-07T02:50:14.561Z,12.95
2022-10-07T02:52:44.866Z,13.32
2022-10-07T02:55:16.037Z,12.93
2022-10-07T02:57:47.618Z,12.45
2022-10-07T03:00:15.683Z,13.23
2022-10-07T03:02:54.566Z,13.25
2022-10-07T03:05:22.499Z,13.65
2022-10-07T03:07:52.925Z,14.43
2022-10-07T03:10:19.636Z,12.98
2022-10-07T03:12:46.056Z,13.25
2022-10-07T03:15:12.882Z,13.00
2022-10-07T03:17:40.477Z,13.60
2022-10-07T03:20:08.075Z,12.73
2022-10-07T03:22:34.823Z,12.82
2022-10-07T03:25:01.257Z,13.25
2022-10-07T03:27:29.045Z,12.82
2022-10-07T03:29:55.711Z,12.70
2022-10-07T03:32:22.670Z,12.90
2022-10-07T03:34:49.084Z,12.88
2022-10-07T03:37:15.558Z,11.82
2022-10-07T03:39:41.980Z,12.70
2022-10-07T03:42:08.783Z,12.90
2022-10-07T03:44:35.708Z,13.07
2022-10-07T03:47:07.609Z,12.05
2022-10-07T03:49:37.035Z,12.48
2022-10-07T03:52:03.550Z,11.52
2022-10-07T03:54:29.994Z,12.48
2022-10-07T03:56:56.386Z,12.48
2022-10-07T03:59:22.793Z,12.43
2022-10-07T04:01:52.251Z,12.40
2022-10-07T04:04:27.187Z,12.80
2022-10-07T04:06:53.690Z,12.57
2022-10-07T04:09:20.076Z,11.95
2022-10-07T04:11:46.504Z,12.60
2022-10-07T04:14:14.069Z,15.10
2022-10-07T04:16:40.917Z,15.05
2022-10-07T04:19:09.446Z,14.93
2022-10-07T04:21:35.807Z,15.27
2022-10-07T04:24:02.249Z,15.18
2022-10-07T04:26:28.686Z,15.48
2022-10-07T04:28:55.108Z,14.95
2022-10-07T04:31:21.613Z,14.35
2022-10-07T04:33:48.230Z,15.40
2022-10-07T04:36:16.222Z,14.20
2022-10-07T04:38:44.229Z,14.82
2022-10-07T04:41:10.698Z,15.18
2022-10-07T04:43:37.101Z,14.80
2022-10-07T04:46:06.441Z,14.55
2022-10-07T04:48:33.438Z,15.18
2022-10-07T04:51:08.646Z,15.88
2022-10-07T04:53:36.387Z,15.10
2022-10-07T04:56:04.015Z,15.60
2022-10-07T04:58:32.786Z,15.45
2022-10-07T05:01:00.736Z,15.00
2022-10-07T05:03:29.098Z,15.45
2022-10-07T05:06:06.160Z,16.27
2022-10-07T05:08:33.334Z,16.38
2022-10-07T05:11:01.624Z,17.55
2022-10-07T05:13:30.750Z,16.20
2022-10-07T05:15:59.651Z,15.75
2022-10-07T05:18:27.853Z,15.77
2022-10-07T05:20:55.139Z,15.63
2022-10-07T05:23:28.367Z,15.07
2022-10-07T05:26:04.924Z,15.85
2022-10-07T05:28:31.969Z,15.27
2022-10-07T05:31:10.309Z,16.35
2022-10-07T05:33:37.130Z,15.73
2022-10-07T05:36:05.317Z,14.85
2022-10-07T05:38:31.797Z,14.95
2022-10-07T05:41:04.637Z,14.95
2022-10-07T05:43:33.490Z,15.02
2022-10-07T05:46:02.235Z,14.85
2022-10-07T05:48:30.062Z,15.00
2022-10-07T05:50:57.423Z,13.75
2022-10-07T05:53:25.509Z,14.50
2022-10-07T05:55:52.690Z,13.73
2022-10-07T05:58:19.984Z,13.23
2022-10-07T06:01:01.045Z,14.10
2022-10-07T06:03:30.409Z,12.95
2022-10-07T06:05:57.134Z,12.95
2022-10-07T06:08:23.754Z,13.48
2022-10-07T06:11:09.290Z,12.90
2022-10-07T06:13:35.759Z,12.45
2022-10-07T06:16:09.817Z,12.60
2022-10-07T06:18:36.959Z,13.07
2022-10-07T06:21:03.922Z,13.10
2022-10-07T06:23:31.407Z,12.82
2022-10-07T06:26:03.711Z,11.98
2022-10-07T06:28:38.964Z,11.95
2022-10-07T06:31:14.016Z,10.68
2022-10-07T06:33:40.807Z,10.88
2022-10-07T06:36:12.900Z,12.27
2022-10-07T06:38:44.965Z,10.43
2022-10-07T06:41:11.375Z,10.13
2022-10-07T06:43:37.863Z,9.77
2022-10-07T06:46:06.019Z,9.75
2022-10-07T06:48:34.044Z,9.40
2022-10-07T06:51:03.353Z,9.55
2022-10-07T06:53:30.420Z,9.13
2022-10-07T06:55:59.457Z,9.05
2022-10-07T06:58:26.390Z,9.02
2022-10-07T07:00:59.531Z,9.23
2022-10-07T07:03:26.657Z,9.02
2022-10-07T07:05:55.140Z,9.18
2022-10-07T07:08:24.245Z,9.77
2022-10-07T07:10:50.692Z,9.52
2022-10-07T07:13:18.088Z,8.40
2022-10-07T07:15:54.798Z,8.75
2022-10-07T07:20:47.560Z,8.63
2022-10-07T07:23:13.963Z,9.20
2022-10-07T07:25:46.160Z,8.18
2022-10-07T07:28:15.184Z,7.80
2022-10-07T07:30:42.290Z,8.73
2022-10-07T07:33:08.865Z,8.25
2022-10-07T07:35:38.424Z,8.95
2022-10-07T07:38:04.823Z,8.65
2022-10-07T07:40:31.215Z,8.60
2022-10-07T07:42:57.669Z,8.50
2022-10-07T07:45:24.425Z,9.55
2022-10-07T07:47:50.854Z,9.38
2022-10-07T07:50:26.959Z,8.55
2022-10-07T07:52:57.456Z,8.35
2022-10-07T07:55:24.234Z,7.97
2022-10-07T07:57:50.629Z,7.55
2022-10-07T08:00:17.221Z,7.68
2022-10-07T08:02:43.716Z,8.13
2022-10-07T08:05:10.665Z,7.55
2022-10-07T08:07:37.728Z,8.45
2022-10-07T08:10:04.411Z,7.60
2022-10-07T08:12:32.294Z,8.05
2022-10-07T08:15:01.029Z,8.20
2022-10-07T08:17:27.418Z,7.93
2022-10-07T08:19:55.242Z,7.10
2022-10-07T08:22:21.827Z,7.05
2022-10-07T08:24:48.893Z,7.13
2022-10-07T08:27:15.429Z,8.20
2022-10-07T08:29:41.809Z,8.25
2022-10-07T08:32:08.185Z,8.85
2022-10-07T08:34:36.410Z,8.00
2022-10-07T08:37:02.941Z,7.70
2022-10-07T08:39:29.478Z,8.48
2022-10-07T08:42:13.389Z,8.77
2022-10-07T08:44:42.963Z,7.97
2022-10-07T08:47:23.845Z,8.93
2022-10-07T08:50:18.099Z,8.52
2022-10-07T08:52:59.252Z,7.93
2022-10-07T08:55:41.018Z,8.98
2022-10-07T08:58:30.911Z,9.07
2022-10-07T09:01:18.563Z,8.80
2022-10-07T09:04:10.673Z,9.15
2022-10-07T09:07:02.064Z,9.38
2022-10-07T09:09:34.617Z,8.88
2022-10-07T09:12:05.148Z,8.55
2022-10-07T09:14:37.527Z,9.25
2022-10-07T09:17:13.077Z,9.23
2022-10-07T09:19:47.962Z,8.73
2022-10-07T09:22:32.327Z,8.20
2022-10-07T09:25:22.947Z,7.97
2022-10-07T09:27:51.582Z,8.52
2022-10-07T09:30:19.374Z,8.98
2022-10-07T09:32:49.116Z,8.77
2022-10-07T09:35:18.883Z,8.10
2022-10-07T09:38:09.267Z,7.63
2022-10-07T09:41:00.140Z,7.63
2022-10-07T09:43:27.691Z,8.18
2022-10-07T09:45:56.325Z,8.02
2022-10-07T09:48:27.323Z,7.65
2022-10-07T09:51:19.226Z,7.32
2022-10-07T09:54:00.017Z,7.30
2022-10-07T09:56:42.658Z,7.57
2022-10-07T09:59:18.218Z,7.22
2022-10-07T10:01:58.540Z,7.60
2022-10-07T10:04:32.305Z,7.75
2022-10-07T10:07:03.888Z,6.38
2022-10-07T10:09:30.698Z,7.03
2022-10-07T10:12:06.505Z,7.35
2022-10-07T10:14:54.336Z,8.05
2022-10-07T10:17:29.810Z,6.53
2022-10-07T10:20:28.263Z,7.15
2022-10-07T10:22:55.920Z,7.53
2022-10-07T10:26:19.478Z,7.13
2022-10-07T10:28:52.345Z,7.07
2022-10-07T10:31:25.627Z,7.47
2022-10-07T10:34:04.475Z,7.40
2022-10-07T10:36:37.945Z,7.38
2022-10-07T10:39:20.339Z,6.90
2022-10-07T10:41:52.616Z,7.07
2022-10-07T10:44:53.377Z,6.97
2022-10-07T10:47:38.882Z,7.60
2022-10-07T10:50:33.044Z,7.20
2022-10-07T10:53:20.200Z,6.82
2022-10-07T10:56:06.284Z,7.40
2022-10-07T10:58:59.275Z,8.07
2022-10-07T11:01:40.909Z,9.60
2022-10-07T11:04:22.505Z,8.70
2022-10-07T11:06:55.922Z,9.65
2022-10-07T11:09:43.599Z,9.55
2022-10-07T11:12:23.131Z,10.13
2022-10-07T11:14:57.967Z,9.32
2022-10-07T11:17:37.595Z,9.40
2022-10-07T11:20:29.726Z,10.20
2022-10-07T11:23:02.420Z,9.95
2022-10-07T11:25:37.610Z,10.25
2022-10-07T11:28:17.035Z,10.20
2022-10-07T11:30:52.814Z,9.40
2022-10-07T11:33:28.728Z,10.30
2022-10-07T11:36:03.909Z,9.98
2022-10-07T11:38:36.365Z,10.73
2022-10-07T11:41:26.470Z,10.73
2022-10-07T11:43:56.975Z,11.07
2022-10-07T11:46:29.816Z,10.85
2022-10-07T11:49:29.818Z,11.05
2022-10-07T11:51:58.252Z,10.98
2022-10-07T11:54:28.995Z,11.07
2022-10-07T11:56:59.340Z,11.70
2022-10-07T11:59:47.929Z,12.02
2022-10-07T12:02:29.875Z,11.55
2022-10-07T12:04:58.134Z,12.20
2022-10-07T12:07:34.953Z,11.48
2022-10-07T12:10:03.259Z,11.38
2022-10-07T12:12:42.591Z,11.07
2022-10-07T12:15:40.239Z,11.20
2022-10-07T12:18:06.560Z,11.23
2022-10-07T12:20:51.206Z,10.55
2022-10-07T12:23:25.683Z,11.25
2022-10-07T12:25:53.415Z,9.90
2022-10-07T12:28:47.274Z,10.38
2022-10-07T12:31:20.589Z,10.40
2022-10-07T12:33:46.976Z,10.27
2022-10-07T12:36:22.559Z,9.70
2022-10-07T12:39:01.231Z,10.53
2022-10-07T12:41:31.155Z,10.55
2022-10-07T12:44:50.459Z,10.18
2022-10-07T12:47:29.839Z,9.88
2022-10-07T12:50:02.736Z,10.25
2022-10-07T12:53:14.288Z,10.25
2022-10-07T12:55:49.966Z,9.85
2022-10-07T12:58:52.104Z,10.40
2022-10-07T13:01:50.429Z,10.82
2022-10-07T13:04:50.433Z,12.45
2022-10-07T13:07:25.903Z,10.90
2022-10-07T13:10:07.568Z,10.65
2022-10-07T13:12:56.977Z,10.52
2022-10-07T13:15:32.467Z,10.60
2022-10-07T13:18:03.196Z,10.52
2022-10-07T13:21:06.617Z,10.52
2022-10-07T13:23:34.066Z,10.50
2022-10-07T13:26:13.139Z,11.32
2022-10-07T13:28:51.434Z,11.40
2022-10-07T13:31:29.705Z,17.95
2022-10-07T13:34:00.222Z,10.15
2022-10-07T13:36:32.437Z,12.85
2022-10-07T13:39:19.205Z,10.82
2022-10-07T13:41:48.940Z,11.50
2022-10-07T13:44:19.459Z,11.02
2022-10-07T13:46:58.511Z,11.40
2022-10-07T13:49:35.553Z,10.98
2022-10-07T13:52:06.893Z,11.20
2022-10-07T13:54:34.015Z,11.50
2022-10-07T13:57:02.365Z,12.00
2022-10-07T13:59:29.506Z,12.65
2022-10-07T14:02:01.286Z,11.45
2022-10-07T14:04:36.166Z,10.98
2022-10-07T14:07:19.397Z,11.63
2022-10-07T14:09:50.153Z,11.55
2022-10-07T14:12:33.398Z,11.45
2022-10-07T14:15:06.772Z,11.00
2022-10-07T14:17:41.059Z,11.05
2022-10-07T14:20:27.527Z,11.95
2022-10-07T14:23:01.996Z,11.25
2022-10-07T14:25:51.291Z,11.88
2022-10-07T14:28:17.891Z,11.68
2022-10-07T14:31:35.058Z,12.70
2022-10-07T14:34:38.263Z,12.27
2022-10-07T14:37:10.504Z,12.15
2022-10-07T14:39:42.661Z,13.40
2022-10-07T14:42:13.836Z,13.20
2022-10-07T14:44:43.952Z,12.73
2022-10-07T14:47:15.846Z,13.07
2022-10-07T14:49:42.405Z,13.13
2022-10-07T14:52:29.067Z,13.20
2022-10-07T14:55:05.531Z,12.38
2022-10-07T14:59:58.345Z,13.73
2022-10-07T15:02:24.758Z,12.25
2022-10-07T15:04:51.291Z,13.88
2022-10-07T15:07:18.403Z,12.65
2022-10-07T15:09:45.880Z,13.65
2022-10-07T15:12:15.079Z,12.35
2022-10-07T15:14:42.123Z,13.43
2022-10-07T15:17:12.068Z,12.90
2022-10-07T15:19:38.623Z,12.55
2022-10-07T15:22:05.661Z,13.20
2022-10-07T15:24:33.171Z,12.77
2022-10-07T15:26:59.867Z,12.77
2022-10-07T15:29:27.302Z,13.73
2022-10-07T15:31:53.973Z,13.02
2022-10-07T15:34:20.474Z,12.35
2022-10-07T15:36:47.833Z,14.07
2022-10-07T15:39:14.270Z,11.98
2022-10-07T15:41:43.482Z,11.05
2022-10-07T15:44:22.191Z,11.38
2022-10-07T15:46:54.043Z,12.60
2022-10-07T15:49:20.774Z,10.63
2022-10-07T15:51:50.543Z,10.98
2022-10-07T15:54:17.030Z,12.70
2022-10-07T15:56:43.709Z,13.02
2022-10-07T15:59:10.324Z,10.82
2022-10-07T16:01:37.416Z,11.85
2022-10-07T16:04:04.233Z,10.65
2022-10-07T16:06:34.010Z,10.90
2022-10-07T16:09:00.983Z,10.90
2022-10-07T16:11:28.835Z,11.35
2022-10-07T16:13:55.378Z,10.35
2022-10-07T16:16:24.003Z,10.40
2022-10-07T16:18:52.183Z,9.50
2022-10-07T16:21:22.790Z,9.35
2022-10-07T16:23:51.845Z,10.32
2022-10-07T16:26:22.612Z,11.73
2022-10-07T16:29:09.318Z,11.90
2022-10-07T16:31:40.097Z,12.20
2022-10-07T16:34:08.068Z,12.23
2022-10-07T16:36:41.055Z,11.15
2022-10-07T16:39:11.457Z,10.80
2022-10-07T16:41:41.560Z,10.30
2022-10-07T16:44:09.094Z,11.00
2022-10-07T16:46:36.427Z,11.27
2022-10-07T16:49:06.673Z,11.98
2022-10-07T16:51:55.005Z,11.65
2022-10-07T16:54:21.995Z,10.25
2022-10-07T16:56:52.268Z,10.65
2022-10-07T16:59:23.190Z,10.07
2022-10-07T17:01:52.432Z,10.63
2022-10-07T17:04:19.159Z,10.77
2022-10-07T17:06:46.147Z,10.40
2022-10-07T17:09:13.735Z,11.63
2022-10-07T17:11:40.233Z,11.38
2022-10-07T17:14:08.083Z,12.45
2022-10-07T17:16:38.246Z,12.48
2022-10-07T17:19:06.385Z,12.32
2022-10-07T17:21:35.481Z,12.48
2022-10-07T17:24:02.622Z,13.07
2022-10-07T17:26:29.726Z,11.85
2022-10-07T17:29:02.417Z,12.32
2022-10-07T17:31:34.708Z,13.40
2022-10-07T17:34:03.225Z,12.73
2022-10-07T17:36:32.223Z,13.00
2022-10-07T17:38:59.338Z,13.20
2022-10-07T17:41:28.441Z,14.02
2022-10-07T17:43:57.251Z,14.13
2022-10-07T17:46:32.929Z,12.35
2022-10-07T17:49:01.958Z,14.27
2022-10-07T17:51:31.234Z,13.93
2022-10-07T17:54:12.003Z,14.23
2022-10-07T17:56:38.410Z,14.98
2022-10-07T17:59:05.443Z,16.15
2022-10-07T18:01:34.783Z,16.33
2022-10-07T18:04:03.262Z,16.80
2022-10-07T18:06:31.915Z,19.20
2022-10-07T18:09:04.449Z,19.58
2022-10-07T18:11:50.506Z,18.42
2022-10-07T18:14:36.400Z,14.40
2022-10-07T18:17:03.829Z,16.13
2022-10-07T18:19:30.281Z,17.50
2022-10-07T18:21:56.853Z,17.45
2022-10-07T18:24:27.220Z,14.38
2022-10-07T18:26:55.229Z,14.65
2022-10-07T18:29:21.664Z,12.75
2022-10-07T18:31:48.120Z,13.15
2022-10-07T18:34:14.723Z,13.23
2022-10-07T18:36:43.199Z,14.18
2022-10-07T18:39:15.776Z,13.73
2022-10-07T18:41:42.429Z,13.60
2022-10-07T18:44:09.652Z,13.90
2022-10-07T18:46:43.290Z,14.10
2022-10-07T18:49:13.440Z,13.35
2022-10-07T18:51:40.881Z,12.60
2022-10-07T18:54:08.585Z,12.30
2022-10-07T18:56:39.957Z,13.40
2022-10-07T18:59:07.466Z,13.20
2022-10-07T19:01:34.067Z,13.27
2022-10-07T19:04:02.270Z,14.57
2022-10-07T19:06:32.546Z,14.93
2022-10-07T19:09:01.582Z,15.13
2022-10-07T19:11:30.368Z,14.05
2022-10-07T19:14:00.745Z,14.80
2022-10-07T19:16:35.349Z,13.57
2022-10-07T19:19:14.826Z,14.13
2022-10-07T19:21:46.561Z,12.68
2022-10-07T19:24:14.008Z,13.65
2022-10-07T19:26:46.930Z,14.07
2022-10-07T19:29:14.479Z,14.60
2022-10-07T19:31:49.969Z,13.65
2022-10-07T19:34:19.539Z,13.10
2022-10-07T19:36:47.318Z,12.32
2022-10-07T19:39:19.416Z,13.05
2022-10-07T19:41:46.488Z,12.93
2022-10-07T19:44:13.593Z,12.85
2022-10-07T19:46:40.206Z,13.05
2022-10-07T19:49:07.281Z,12.25
2022-10-07T19:51:34.785Z,13.10
2022-10-07T19:54:03.394Z,12.57
2022-10-07T19:56:35.535Z,12.15
2022-10-07T19:59:11.077Z,12.93
2022-10-07T20:01:41.528Z,13.43
2022-10-07T20:04:16.482Z,13.30
2022-10-07T20:06:44.600Z,13.52
2022-10-07T20:09:13.763Z,13.48
2022-10-07T20:11:40.263Z,14.25
2022-10-07T20:14:07.011Z,13.50
2022-10-07T20:16:34.501Z,14.75
2022-10-07T20:19:05.475Z,13.95
2022-10-07T20:21:35.403Z,15.00
2022-10-07T20:24:11.363Z,14.40
2022-10-07T20:26:38.780Z,15.32
2022-10-07T20:29:07.483Z,15.90
2022-10-07T20:31:35.875Z,15.65
2022-10-07T20:34:03.746Z,15.68
2022-10-07T20:36:35.706Z,15.70
2022-10-07T20:39:47.024Z,16.05
2022-10-07T20:42:24.311Z,14.98
2022-10-07T20:44:51.949Z,15.88
2022-10-07T20:47:19.604Z,14.95
2022-10-07T20:49:50.766Z,15.07
2022-10-07T20:52:20.557Z,15.15
2022-10-07T20:54:47.810Z,14.43
2022-10-07T20:57:16.837Z,14.25
2022-10-07T20:59:43.948Z,14.43
2022-10-07T21:02:13.543Z,13.55
2022-10-07T21:04:40.260Z,13.70
2022-10-07T21:07:08.152Z,14.38
2022-10-07T21:09:37.578Z,15.32
2022-10-07T21:12:07.261Z,13.98
2022-10-07T21:14:34.830Z,14.88
2022-10-07T21:17:02.152Z,14.57
2022-10-07T21:19:31.615Z,15.20
2022-10-07T21:21:58.058Z,14.80
2022-10-07T21:24:24.455Z,14.50
2022-10-07T21:26:50.820Z,13.77
2022-10-07T21:29:18.857Z,15.23
2022-10-07T21:31:45.525Z,14.45
2022-10-07T21:34:11.906Z,14.20
2022-10-07T21:36:51.675Z,15.68
2022-10-07T21:39:20.152Z,17.17
2022-10-07T21:41:48.011Z,17.58
2022-10-07T21:44:14.461Z,16.23
2022-10-07T21:46:46.148Z,16.63
2022-10-07T21:49:14.677Z,14.93
2022-10-07T21:51:41.663Z,16.25
2022-10-07T21:54:13.462Z,15.88
2022-10-07T21:56:40.175Z,15.70
2022-10-07T21:59:06.558Z,15.27
2022-10-07T22:01:33.173Z,14.45
2022-10-07T22:04:02.048Z,14.43
2022-10-07T22:06:49.023Z,14.48
2022-10-07T22:11:44.842Z,13.85
2022-10-07T22:14:12.899Z,14.60
2022-10-07T22:16:40.387Z,13.40
2022-10-07T22:19:08.785Z,13.70
2022-10-07T22:21:39.786Z,13.52
2022-10-07T22:24:07.524Z,12.65
2022-10-07T22:26:44.307Z,12.07
2022-10-07T22:29:11.959Z,13.23
2022-10-07T22:31:41.922Z,12.45
2022-10-07T22:34:08.805Z,11.95
2022-10-07T22:36:36.742Z,11.73
2022-10-07T22:39:03.928Z,12.27
2022-10-07T22:41:30.898Z,12.43
2022-10-07T22:43:58.970Z,11.23
2022-10-07T22:46:28.473Z,11.70
2022-10-07T22:48:57.778Z,11.60
2022-10-07T22:51:27.806Z,10.85
2022-10-07T22:53:55.603Z,11.30
2022-10-07T22:56:23.596Z,11.10
2022-10-07T22:58:53.172Z,11.05
2022-10-07T23:01:21.750Z,10.50
2022-10-07T23:03:48.314Z,10.98
2022-10-07T23:06:20.091Z,11.18
2022-10-07T23:08:47.618Z,10.55
2022-10-07T23:11:22.197Z,10.77
2022-10-07T23:13:49.586Z,11.38
2022-10-07T23:16:21.143Z,10.30
2022-10-07T23:18:49.418Z,10.27
2022-10-07T23:21:18.513Z,9.90
2022-10-07T23:23:47.603Z,9.82
2022-10-07T23:26:15.585Z,10.55
2022-10-07T23:28:42.145Z,9.55
2022-10-07T23:31:10.960Z,9.80
2022-10-07T23:33:38.153Z,9.13
2022-10-07T23:36:08.819Z,9.85
2022-10-07T23:38:36.707Z,9.52
2022-10-07T23:41:03.148Z,9.15
2022-10-07T23:43:33.347Z,9.13
2022-10-07T23:46:05.314Z,9.20
2022-10-07T23:48:34.538Z,9.32
2022-10-07T23:51:04.426Z,8.85
2022-10-07T23:53:31.350Z,9.57
2022-10-07T23:55:57.989Z,8.60
2022-10-07T23:58:26.529Z,9.43
